sensor_id;sensor_type;location;lat;lon;timestamp;P1;durP1;ratioP1;P2;durP2;ratioP2
28074;SDS011;15385;51.088;6.572;2022-08-16T00:00:50;8.93;;;3.22;;
28074;SDS011;15385;51.088;6.572;2022-08-16T00:03:21;9.68;;;2.78;;
28074;SDS011;15385;51.088;6.572;2022-08-16T00:05:52;8.82;;;3.22;;
28074;SDS011;15385;51.088;6.572;2022-08-16T00:08:22;4.60;;;3.00;;
28074;SDS011;15385;51.088;6.572;2022-08-16T00:10:53;10.90;;;3.35;;
28074;SDS011;15385;51.088;6.572;2022-08-16T00:13:24;14.13;;;3.60;;
28074;SDS011;15385;51.088;6.572;2022-08-16T00:15:54;5.93;;;2.80;;
28074;SDS011;15385;51.088;6.572;2022-08-16T00:18:25;9.20;;;3.10;;
28074;SDS011;15385;51.088;6.572;2022-08-16T00:20:56;8.30;;;3.22;;
28074;SDS011;15385;51.088;6.572;2022-08-16T00:23:27;12.20;;;3.05;;
28074;SDS011;15385;51.088;6.572;2022-08-16T00:25:57;6.60;;;2.90;;
28074;SDS011;15385;51.088;6.572;2022-08-16T00:28:28;11.05;;;3.33;;
28074;SDS011;15385;51.088;6.572;2022-08-16T00:30:59;10.20;;;3.42;;
28074;SDS011;15385;51.088;6.572;2022-08-16T00:33:32;8.30;;;3.15;;
28074;SDS011;15385;51.088;6.572;2022-08-16T00:36:03;10.85;;;3.25;;
28074;SDS011;15385;51.088;6.572;2022-08-16T00:38:34;6.60;;;3.33;;
28074;SDS011;15385;51.088;6.572;2022-08-16T00:41:05;10.80;;;3.38;;
28074;SDS011;15385;51.088;6.572;2022-08-16T00:43:36;8.48;;;2.92;;
28074;SDS011;15385;51.088;6.572;2022-08-16T00:46:19;8.40;;;3.10;;
28074;SDS011;15385;51.088;6.572;2022-08-16T00:48:59;4.57;;;2.65;;
28074;SDS011;15385;51.088;6.572;2022-08-16T00:51:30;7.97;;;3.20;;
28074;SDS011;15385;51.088;6.572;2022-08-16T00:54:02;5.75;;;2.67;;
28074;SDS011;15385;51.088;6.572;2022-08-16T00:56:37;3.38;;;2.58;;
28074;SDS011;15385;51.088;6.572;2022-08-16T00:59:11;4.10;;;2.55;;
28074;SDS011;15385;51.088;6.572;2022-08-16T01:01:44;5.18;;;2.60;;
28074;SDS011;15385;51.088;6.572;2022-08-16T01:04:16;4.22;;;2.53;;
28074;SDS011;15385;51.088;6.572;2022-08-16T01:06:49;3.58;;;2.83;;
28074;SDS011;15385;51.088;6.572;2022-08-16T01:09:20;3.65;;;2.80;;
28074;SDS011;15385;51.088;6.572;2022-08-16T01:11:52;3.80;;;2.65;;
28074;SDS011;15385;51.088;6.572;2022-08-16T01:14:25;4.60;;;2.47;;
28074;SDS011;15385;51.088;6.572;2022-08-16T01:17:14;4.40;;;3.05;;
28074;SDS011;15385;51.088;6.572;2022-08-16T01:19:49;4.82;;;3.00;;
28074;SDS011;15385;51.088;6.572;2022-08-16T01:22:31;6.32;;;2.88;;
28074;SDS011;15385;51.088;6.572;2022-08-16T01:25:13;6.75;;;2.88;;
28074;SDS011;15385;51.088;6.572;2022-08-16T01:27:51;4.85;;;2.70;;
28074;SDS011;15385;51.088;6.572;2022-08-16T01:30:25;3.42;;;2.90;;
28074;SDS011;15385;51.088;6.572;2022-08-16T01:33:04;6.53;;;3.08;;
28074;SDS011;15385;51.088;6.572;2022-08-16T01:38:27;4.13;;;2.95;;
28074;SDS011;15385;51.088;6.572;2022-08-16T01:41:10;5.07;;;3.13;;
28074;SDS011;15385;51.088;6.572;2022-08-16T01:43:44;4.60;;;3.22;;
28074;SDS011;15385;51.088;6.572;2022-08-16T01:48:55;5.82;;;3.28;;
28074;SDS011;15385;51.088;6.572;2022-08-16T01:51:49;6.53;;;3.45;;
28074;SDS011;15385;51.088;6.572;2022-08-16T01:54:24;4.03;;;3.28;;
28074;SDS011;15385;51.088;6.572;2022-08-16T01:56:55;5.38;;;3.70;;
28074;SDS011;15385;51.088;6.572;2022-08-16T01:59:26;3.50;;;3.10;;
28074;SDS011;15385;51.088;6.572;2022-08-16T02:01:58;4.18;;;3.25;;
28074;SDS011;15385;51.088;6.572;2022-08-16T02:04:30;7.97;;;3.45;;
28074;SDS011;15385;51.088;6.572;2022-08-16T02:07:03;5.40;;;3.85;;
28074;SDS011;15385;51.088;6.572;2022-08-16T02:09:39;3.97;;;3.42;;
28074;SDS011;15385;51.088;6.572;2022-08-16T02:12:10;5.60;;;3.45;;
28074;SDS011;15385;51.088;6.572;2022-08-16T02:14:42;5.97;;;3.38;;
28074;SDS011;15385;51.088;6.572;2022-08-16T02:17:15;4.13;;;3.63;;
28074;SDS011;15385;51.088;6.572;2022-08-16T02:19:46;4.45;;;3.75;;
28074;SDS011;15385;51.088;6.572;2022-08-16T02:22:20;3.63;;;3.33;;
28074;SDS011;15385;51.088;6.572;2022-08-16T02:24:52;3.70;;;3.38;;
28074;SDS011;15385;51.088;6.572;2022-08-16T02:27:23;5.32;;;4.15;;
28074;SDS011;15385;51.088;6.572;2022-08-16T02:29:54;5.70;;;3.65;;
28074;SDS011;15385;51.088;6.572;2022-08-16T02:32:25;7.25;;;3.58;;
28074;SDS011;15385;51.088;6.572;2022-08-16T02:34:55;5.50;;;3.72;;
28074;SDS011;15385;51.088;6.572;2022-08-16T02:37:26;8.90;;;3.90;;
28074;SDS011;15385;51.088;6.572;2022-08-16T02:39:57;4.70;;;3.53;;
28074;SDS011;15385;51.088;6.572;2022-08-16T02:42:28;5.55;;;3.65;;
28074;SDS011;15385;51.088;6.572;2022-08-16T02:44:58;7.93;;;3.90;;
28074;SDS011;15385;51.088;6.572;2022-08-16T02:47:29;6.57;;;3.67;;
28074;SDS011;15385;51.088;6.572;2022-08-16T02:50:00;3.90;;;3.00;;
28074;SDS011;15385;51.088;6.572;2022-08-16T02:52:31;6.28;;;3.47;;
28074;SDS011;15385;51.088;6.572;2022-08-16T02:55:02;5.18;;;3.58;;
28074;SDS011;15385;51.088;6.572;2022-08-16T02:57:36;4.95;;;3.75;;
28074;SDS011;15385;51.088;6.572;2022-08-16T03:00:08;5.65;;;3.78;;
28074;SDS011;15385;51.088;6.572;2022-08-16T03:02:43;5.18;;;3.72;;
28074;SDS011;15385;51.088;6.572;2022-08-16T03:05:14;5.40;;;3.50;;
28074;SDS011;15385;51.088;6.572;2022-08-16T03:07:45;6.55;;;3.90;;
28074;SDS011;15385;51.088;6.572;2022-08-16T03:10:15;7.95;;;3.53;;
28074;SDS011;15385;51.088;6.572;2022-08-16T03:12:48;4.10;;;3.13;;
28074;SDS011;15385;51.088;6.572;2022-08-16T03:15:19;4.50;;;3.55;;
28074;SDS011;15385;51.088;6.572;2022-08-16T03:17:53;4.63;;;3.75;;
28074;SDS011;15385;51.088;6.572;2022-08-16T03:20:23;5.85;;;3.72;;
28074;SDS011;15385;51.088;6.572;2022-08-16T03:22:58;6.10;;;3.70;;
28074;SDS011;15385;51.088;6.572;2022-08-16T03:25:28;5.15;;;4.28;;
28074;SDS011;15385;51.088;6.572;2022-08-16T03:28:00;4.03;;;3.63;;
28074;SDS011;15385;51.088;6.572;2022-08-16T03:30:31;8.85;;;3.70;;
28074;SDS011;15385;51.088;6.572;2022-08-16T03:33:03;5.07;;;3.63;;
28074;SDS011;15385;51.088;6.572;2022-08-16T03:35:36;7.38;;;3.85;;
28074;SDS011;15385;51.088;6.572;2022-08-16T03:38:08;4.82;;;3.63;;
28074;SDS011;15385;51.088;6.572;2022-08-16T03:40:41;5.70;;;3.47;;
28074;SDS011;15385;51.088;6.572;2022-08-16T03:43:12;5.45;;;3.85;;
28074;SDS011;15385;51.088;6.572;2022-08-16T03:45:46;5.60;;;4.07;;
28074;SDS011;15385;51.088;6.572;2022-08-16T03:48:17;4.63;;;3.78;;
28074;SDS011;15385;51.088;6.572;2022-08-16T03:50:48;6.00;;;3.67;;
28074;SDS011;15385;51.088;6.572;2022-08-16T03:53:19;4.22;;;3.47;;
28074;SDS011;15385;51.088;6.572;2022-08-16T03:55:50;6.35;;;3.70;;
28074;SDS011;15385;51.088;6.572;2022-08-16T03:58:23;5.63;;;3.85;;
28074;SDS011;15385;51.088;6.572;2022-08-16T04:00:54;7.07;;;3.67;;
28074;SDS011;15385;51.088;6.572;2022-08-16T04:03:24;6.45;;;3.70;;
28074;SDS011;15385;51.088;6.572;2022-08-16T04:05:55;8.35;;;3.95;;
28074;SDS011;15385;51.088;6.572;2022-08-16T04:08:30;6.93;;;3.75;;
28074;SDS011;15385;51.088;6.572;2022-08-16T04:11:00;4.85;;;3.35;;
28074;SDS011;15385;51.088;6.572;2022-08-16T04:13:32;4.53;;;3.92;;
28074;SDS011;15385;51.088;6.572;2022-08-16T04:16:03;5.63;;;3.63;;
28074;SDS011;15385;51.088;6.572;2022-08-16T04:18:34;5.50;;;3.67;;
28074;SDS011;15385;51.088;6.572;2022-08-16T04:21:11;5.55;;;3.80;;
28074;SDS011;15385;51.088;6.572;2022-08-16T04:23:42;5.20;;;4.25;;
28074;SDS011;15385;51.088;6.572;2022-08-16T04:26:13;4.38;;;3.65;;
28074;SDS011;15385;51.088;6.572;2022-08-16T04:28:46;4.90;;;3.35;;
28074;SDS011;15385;51.088;6.572;2022-08-16T04:31:18;5.57;;;3.67;;
28074;SDS011;15385;51.088;6.572;2022-08-16T04:33:48;5.63;;;3.80;;
28074;SDS011;15385;51.088;6.572;2022-08-16T04:36:19;7.32;;;4.38;;
28074;SDS011;15385;51.088;6.572;2022-08-16T04:38:50;4.88;;;3.70;;
28074;SDS011;15385;51.088;6.572;2022-08-16T04:41:21;7.15;;;3.70;;
28074;SDS011;15385;51.088;6.572;2022-08-16T04:43:54;3.83;;;3.50;;
28074;SDS011;15385;51.088;6.572;2022-08-16T04:46:25;5.88;;;3.67;;
28074;SDS011;15385;51.088;6.572;2022-08-16T04:48:58;5.93;;;3.72;;
28074;SDS011;15385;51.088;6.572;2022-08-16T04:51:32;5.13;;;3.80;;
28074;SDS011;15385;51.088;6.572;2022-08-16T04:54:04;5.28;;;3.60;;
28074;SDS011;15385;51.088;6.572;2022-08-16T04:56:35;4.72;;;3.65;;
28074;SDS011;15385;51.088;6.572;2022-08-16T04:59:06;4.55;;;4.03;;
28074;SDS011;15385;51.088;6.572;2022-08-16T05:01:37;5.03;;;3.63;;
28074;SDS011;15385;51.088;6.572;2022-08-16T05:04:08;4.95;;;3.53;;
28074;SDS011;15385;51.088;6.572;2022-08-16T05:06:39;4.63;;;3.80;;
28074;SDS011;15385;51.088;6.572;2022-08-16T05:09:10;5.05;;;3.75;;
28074;SDS011;15385;51.088;6.572;2022-08-16T05:11:43;4.72;;;3.42;;
28074;SDS011;15385;51.088;6.572;2022-08-16T05:14:15;4.95;;;3.85;;
28074;SDS011;15385;51.088;6.572;2022-08-16T05:16:45;8.32;;;3.63;;
28074;SDS011;15385;51.088;6.572;2022-08-16T05:19:16;4.53;;;3.65;;
28074;SDS011;15385;51.088;6.572;2022-08-16T05:21:47;5.63;;;3.78;;
28074;SDS011;15385;51.088;6.572;2022-08-16T05:24:18;7.10;;;3.95;;
28074;SDS011;15385;51.088;6.572;2022-08-16T05:26:49;7.50;;;4.13;;
28074;SDS011;15385;51.088;6.572;2022-08-16T05:29:19;7.97;;;4.15;;
28074;SDS011;15385;51.088;6.572;2022-08-16T05:31:50;5.10;;;4.03;;
28074;SDS011;15385;51.088;6.572;2022-08-16T05:34:21;6.95;;;3.42;;
28074;SDS011;15385;51.088;6.572;2022-08-16T05:36:51;5.82;;;4.05;;
28074;SDS011;15385;51.088;6.572;2022-08-16T05:39:26;5.53;;;3.80;;
28074;SDS011;15385;51.088;6.572;2022-08-16T05:41:57;6.10;;;3.60;;
28074;SDS011;15385;51.088;6.572;2022-08-16T05:44:27;5.72;;;3.70;;
28074;SDS011;15385;51.088;6.572;2022-08-16T05:46:59;5.32;;;3.80;;
28074;SDS011;15385;51.088;6.572;2022-08-16T05:49:30;5.88;;;3.90;;
28074;SDS011;15385;51.088;6.572;2022-08-16T05:52:01;9.85;;;4.35;;
28074;SDS011;15385;51.088;6.572;2022-08-16T05:54:31;6.00;;;3.78;;
28074;SDS011;15385;51.088;6.572;2022-08-16T05:57:02;5.22;;;3.88;;
28074;SDS011;15385;51.088;6.572;2022-08-16T05:59:34;4.80;;;3.63;;
28074;SDS011;15385;51.088;6.572;2022-08-16T06:02:04;4.25;;;3.40;;
28074;SDS011;15385;51.088;6.572;2022-08-16T06:04:38;4.45;;;3.22;;
28074;SDS011;15385;51.088;6.572;2022-08-16T06:07:09;5.40;;;3.58;;
28074;SDS011;15385;51.088;6.572;2022-08-16T06:09:41;5.10;;;3.58;;
28074;SDS011;15385;51.088;6.572;2022-08-16T06:12:12;6.90;;;3.97;;
28074;SDS011;15385;51.088;6.572;2022-08-16T06:14:47;7.85;;;3.58;;
28074;SDS011;15385;51.088;6.572;2022-08-16T06:17:23;5.40;;;3.60;;
28074;SDS011;15385;51.088;6.572;2022-08-16T06:19:54;5.32;;;3.50;;
28074;SDS011;15385;51.088;6.572;2022-08-16T06:22:25;3.38;;;2.85;;
28074;SDS011;15385;51.088;6.572;2022-08-16T06:24:56;6.10;;;3.28;;
28074;SDS011;15385;51.088;6.572;2022-08-16T06:27:29;6.22;;;3.40;;
28074;SDS011;15385;51.088;6.572;2022-08-16T06:30:00;4.40;;;3.13;;
28074;SDS011;15385;51.088;6.572;2022-08-16T06:32:33;6.35;;;3.03;;
28074;SDS011;15385;51.088;6.572;2022-08-16T06:35:04;5.95;;;2.97;;
28074;SDS011;15385;51.088;6.572;2022-08-16T06:37:39;3.00;;;2.70;;
28074;SDS011;15385;51.088;6.572;2022-08-16T06:40:09;4.28;;;3.35;;
28074;SDS011;15385;51.088;6.572;2022-08-16T06:42:40;4.07;;;3.47;;
28074;SDS011;15385;51.088;6.572;2022-08-16T06:45:11;4.13;;;3.25;;
28074;SDS011;15385;51.088;6.572;2022-08-16T06:47:43;5.72;;;3.35;;
28074;SDS011;15385;51.088;6.572;2022-08-16T06:50:13;5.45;;;3.17;;
28074;SDS011;15385;51.088;6.572;2022-08-16T06:52:44;5.65;;;2.97;;
28074;SDS011;15385;51.088;6.572;2022-08-16T06:55:15;9.45;;;3.55;;
28074;SDS011;15385;51.088;6.572;2022-08-16T06:57:50;5.10;;;3.38;;
28074;SDS011;15385;51.088;6.572;2022-08-16T07:00:24;5.43;;;3.40;;
28074;SDS011;15385;51.088;6.572;2022-08-16T07:02:54;10.98;;;3.40;;
28074;SDS011;15385;51.088;6.572;2022-08-16T07:05:26;5.60;;;3.55;;
28074;SDS011;15385;51.088;6.572;2022-08-16T07:08:00;4.03;;;2.50;;
28074;SDS011;15385;51.088;6.572;2022-08-16T07:10:33;5.63;;;2.53;;
28074;SDS011;15385;51.088;6.572;2022-08-16T07:13:03;5.63;;;3.50;;
28074;SDS011;15385;51.088;6.572;2022-08-16T07:15:34;3.53;;;2.95;;
28074;SDS011;15385;51.088;6.572;2022-08-16T07:18:08;13.23;;;4.78;;
28074;SDS011;15385;51.088;6.572;2022-08-16T07:20:40;3.38;;;2.90;;
28074;SDS011;15385;51.088;6.572;2022-08-16T07:23:11;7.93;;;3.53;;
28074;SDS011;15385;51.088;6.572;2022-08-16T07:25:42;6.60;;;3.35;;
28074;SDS011;15385;51.088;6.572;2022-08-16T07:28:14;7.00;;;3.47;;
28074;SDS011;15385;51.088;6.572;2022-08-16T07:30:47;7.50;;;3.50;;
28074;SDS011;15385;51.088;6.572;2022-08-16T07:33:18;4.82;;;3.00;;
28074;SDS011;15385;51.088;6.572;2022-08-16T07:35:48;9.10;;;3.55;;
28074;SDS011;15385;51.088;6.572;2022-08-16T07:38:19;10.30;;;4.30;;
28074;SDS011;15385;51.088;6.572;2022-08-16T07:40:49;7.05;;;3.95;;
28074;SDS011;15385;51.088;6.572;2022-08-16T07:43:21;6.45;;;4.07;;
28074;SDS011;15385;51.088;6.572;2022-08-16T07:45:52;6.65;;;4.00;;
28074;SDS011;15385;51.088;6.572;2022-08-16T07:48:24;11.52;;;3.85;;
28074;SDS011;15385;51.088;6.572;2022-08-16T07:50:55;10.02;;;4.00;;
28074;SDS011;15385;51.088;6.572;2022-08-16T07:53:26;11.38;;;3.92;;
28074;SDS011;15385;51.088;6.572;2022-08-16T07:55:58;8.63;;;4.07;;
28074;SDS011;15385;51.088;6.572;2022-08-16T07:58:29;7.18;;;4.30;;
28074;SDS011;15385;51.088;6.572;2022-08-16T08:01:04;6.15;;;3.90;;
28074;SDS011;15385;51.088;6.572;2022-08-16T08:03:35;5.72;;;4.05;;
28074;SDS011;15385;51.088;6.572;2022-08-16T08:06:06;9.10;;;4.22;;
28074;SDS011;15385;51.088;6.572;2022-08-16T08:08:37;5.32;;;3.67;;
28074;SDS011;15385;51.088;6.572;2022-08-16T08:11:10;10.20;;;5.28;;
28074;SDS011;15385;51.088;6.572;2022-08-16T08:13:42;8.27;;;4.35;;
28074;SDS011;15385;51.088;6.572;2022-08-16T08:16:12;8.02;;;4.38;;
28074;SDS011;15385;51.088;6.572;2022-08-16T08:18:43;7.47;;;4.20;;
28074;SDS011;15385;51.088;6.572;2022-08-16T08:21:14;5.72;;;3.80;;
28074;SDS011;15385;51.088;6.572;2022-08-16T08:23:48;14.93;;;3.97;;
28074;SDS011;15385;51.088;6.572;2022-08-16T08:26:19;5.47;;;4.15;;
28074;SDS011;15385;51.088;6.572;2022-08-16T08:28:54;6.22;;;4.90;;
28074;SDS011;15385;51.088;6.572;2022-08-16T08:31:24;11.48;;;5.18;;
28074;SDS011;15385;51.088;6.572;2022-08-16T08:33:55;11.82;;;5.00;;
28074;SDS011;15385;51.088;6.572;2022-08-16T08:36:29;13.43;;;5.43;;
28074;SDS011;15385;51.088;6.572;2022-08-16T08:39:01;5.88;;;3.97;;
28074;SDS011;15385;51.088;6.572;2022-08-16T08:41:33;10.85;;;4.68;;
28074;SDS011;15385;51.088;6.572;2022-08-16T08:44:03;14.35;;;5.03;;
28074;SDS011;15385;51.088;6.572;2022-08-16T08:46:34;8.02;;;4.53;;
28074;SDS011;15385;51.088;6.572;2022-08-16T08:49:05;8.75;;;5.03;;
28074;SDS011;15385;51.088;6.572;2022-08-16T08:51:37;5.70;;;3.92;;
28074;SDS011;15385;51.088;6.572;2022-08-16T08:54:08;9.48;;;4.68;;
28074;SDS011;15385;51.088;6.572;2022-08-16T08:56:39;10.80;;;4.60;;
28074;SDS011;15385;51.088;6.572;2022-08-16T08:59:10;6.55;;;4.65;;
28074;SDS011;15385;51.088;6.572;2022-08-16T09:01:42;6.20;;;4.32;;
28074;SDS011;15385;51.088;6.572;2022-08-16T09:04:14;10.38;;;4.18;;
28074;SDS011;15385;51.088;6.572;2022-08-16T09:06:45;8.40;;;4.20;;
28074;SDS011;15385;51.088;6.572;2022-08-16T09:09:16;8.65;;;5.03;;
28074;SDS011;15385;51.088;6.572;2022-08-16T09:11:46;9.68;;;5.05;;
28074;SDS011;15385;51.088;6.572;2022-08-16T09:14:17;8.10;;;4.30;;
28074;SDS011;15385;51.088;6.572;2022-08-16T09:16:47;10.25;;;4.75;;
28074;SDS011;15385;51.088;6.572;2022-08-16T09:19:20;10.60;;;5.03;;
28074;SDS011;15385;51.088;6.572;2022-08-16T09:21:51;7.45;;;4.47;;
28074;SDS011;15385;51.088;6.572;2022-08-16T09:24:22;6.68;;;4.28;;
28074;SDS011;15385;51.088;6.572;2022-08-16T09:26:52;5.50;;;3.67;;
28074;SDS011;15385;51.088;6.572;2022-08-16T09:29:23;5.10;;;3.95;;
28074;SDS011;15385;51.088;6.572;2022-08-16T09:31:54;7.65;;;4.50;;
28074;SDS011;15385;51.088;6.572;2022-08-16T09:34:26;7.82;;;4.75;;
28074;SDS011;15385;51.088;6.572;2022-08-16T09:36:58;7.63;;;4.88;;
28074;SDS011;15385;51.088;6.572;2022-08-16T09:39:29;7.60;;;3.65;;
28074;SDS011;15385;51.088;6.572;2022-08-16T09:41:59;14.10;;;4.00;;
28074;SDS011;15385;51.088;6.572;2022-08-16T09:44:31;4.75;;;3.50;;
28074;SDS011;15385;51.088;6.572;2022-08-16T09:47:02;9.05;;;4.60;;
28074;SDS011;15385;51.088;6.572;2022-08-16T09:49:33;8.65;;;4.90;;
28074;SDS011;15385;51.088;6.572;2022-08-16T09:52:04;8.45;;;4.30;;
28074;SDS011;15385;51.088;6.572;2022-08-16T09:54:35;7.90;;;4.50;;
28074;SDS011;15385;51.088;6.572;2022-08-16T09:57:07;6.00;;;4.05;;
28074;SDS011;15385;51.088;6.572;2022-08-16T09:59:38;5.47;;;3.92;;
28074;SDS011;15385;51.088;6.572;2022-08-16T10:02:08;7.68;;;4.20;;
28074;SDS011;15385;51.088;6.572;2022-08-16T10:04:39;10.18;;;4.18;;
28074;SDS011;15385;51.088;6.572;2022-08-16T10:07:10;11.63;;;4.15;;
28074;SDS011;15385;51.088;6.572;2022-08-16T10:09:41;5.43;;;4.22;;
28074;SDS011;15385;51.088;6.572;2022-08-16T10:12:12;5.22;;;3.30;;
28074;SDS011;15385;51.088;6.572;2022-08-16T10:15:01;5.15;;;3.95;;
28074;SDS011;15385;51.088;6.572;2022-08-16T10:17:33;6.72;;;3.67;;
28074;SDS011;15385;51.088;6.572;2022-08-16T10:20:04;7.60;;;3.85;;
28074;SDS011;15385;51.088;6.572;2022-08-16T10:22:34;8.65;;;3.72;;
28074;SDS011;15385;51.088;6.572;2022-08-16T10:25:06;9.73;;;3.50;;
28074;SDS011;15385;51.088;6.572;2022-08-16T10:27:38;6.78;;;4.20;;
28074;SDS011;15385;51.088;6.572;2022-08-16T10:30:08;9.98;;;3.60;;
28074;SDS011;15385;51.088;6.572;2022-08-16T10:32:39;5.22;;;3.90;;
28074;SDS011;15385;51.088;6.572;2022-08-16T10:35:10;3.90;;;3.50;;
28074;SDS011;15385;51.088;6.572;2022-08-16T10:37:40;3.25;;;3.03;;
28074;SDS011;15385;51.088;6.572;2022-08-16T10:40:11;3.90;;;3.42;;
28074;SDS011;15385;51.088;6.572;2022-08-16T10:42:42;5.13;;;3.13;;
28074;SDS011;15385;51.088;6.572;2022-08-16T10:45:14;4.93;;;3.25;;
28074;SDS011;15385;51.088;6.572;2022-08-16T10:47:45;7.85;;;3.15;;
28074;SDS011;15385;51.088;6.572;2022-08-16T10:50:18;5.95;;;3.08;;
28074;SDS011;15385;51.088;6.572;2022-08-16T10:52:51;4.47;;;2.97;;
28074;SDS011;15385;51.088;6.572;2022-08-16T10:55:23;5.40;;;3.17;;
28074;SDS011;15385;51.088;6.572;2022-08-16T10:57:54;4.60;;;3.17;;
28074;SDS011;15385;51.088;6.572;2022-08-16T11:00:25;6.18;;;3.25;;
28074;SDS011;15385;51.088;6.572;2022-08-16T11:02:56;3.75;;;3.28;;
28074;SDS011;15385;51.088;6.572;2022-08-16T11:05:27;5.63;;;3.80;;
28074;SDS011;15385;51.088;6.572;2022-08-16T11:07:59;8.30;;;3.40;;
28074;SDS011;15385;51.088;6.572;2022-08-16T11:10:32;4.72;;;3.15;;
28074;SDS011;15385;51.088;6.572;2022-08-16T11:13:09;3.95;;;3.05;;
28074;SDS011;15385;51.088;6.572;2022-08-16T11:15:51;5.03;;;2.42;;
28074;SDS011;15385;51.088;6.572;2022-08-16T11:18:26;7.30;;;2.53;;
28074;SDS011;15385;51.088;6.572;2022-08-16T11:21:00;8.98;;;3.05;;
28074;SDS011;15385;51.088;6.572;2022-08-16T11:23:30;3.38;;;2.50;;
28074;SDS011;15385;51.088;6.572;2022-08-16T11:26:01;5.28;;;3.10;;
28074;SDS011;15385;51.088;6.572;2022-08-16T11:28:32;5.97;;;3.08;;
28074;SDS011;15385;51.088;6.572;2022-08-16T11:31:05;3.00;;;2.67;;
28074;SDS011;15385;51.088;6.572;2022-08-16T11:33:36;5.18;;;3.05;;
28074;SDS011;15385;51.088;6.572;2022-08-16T11:36:06;4.57;;;2.70;;
28074;SDS011;15385;51.088;6.572;2022-08-16T11:38:37;6.10;;;3.03;;
28074;SDS011;15385;51.088;6.572;2022-08-16T11:41:08;4.35;;;3.17;;
28074;SDS011;15385;51.088;6.572;2022-08-16T11:43:41;4.65;;;2.97;;
28074;SDS011;15385;51.088;6.572;2022-08-16T11:46:13;6.18;;;2.78;;
28074;SDS011;15385;51.088;6.572;2022-08-16T11:48:46;7.68;;;2.95;;
28074;SDS011;15385;51.088;6.572;2022-08-16T11:51:17;3.38;;;2.72;;
28074;SDS011;15385;51.088;6.572;2022-08-16T11:53:48;8.80;;;3.08;;
28074;SDS011;15385;51.088;6.572;2022-08-16T11:56:22;6.80;;;2.97;;
28074;SDS011;15385;51.088;6.572;2022-08-16T11:58:53;5.88;;;2.70;;
28074;SDS011;15385;51.088;6.572;2022-08-16T12:01:26;5.03;;;3.15;;
28074;SDS011;15385;51.088;6.572;2022-08-16T12:03:57;6.25;;;2.55;;
28074;SDS011;15385;51.088;6.572;2022-08-16T12:06:28;4.07;;;2.80;;
28074;SDS011;15385;51.088;6.572;2022-08-16T12:08:58;6.15;;;3.00;;
28074;SDS011;15385;51.088;6.572;2022-08-16T12:11:30;6.40;;;2.58;;
28074;SDS011;15385;51.088;6.572;2022-08-16T12:14:02;8.60;;;3.20;;
28074;SDS011;15385;51.088;6.572;2022-08-16T12:16:37;6.10;;;2.50;;
28074;SDS011;15385;51.088;6.572;2022-08-16T12:19:08;5.15;;;3.05;;
28074;SDS011;15385;51.088;6.572;2022-08-16T12:21:39;4.75;;;2.40;;
28074;SDS011;15385;51.088;6.572;2022-08-16T12:24:11;6.30;;;2.83;;
28074;SDS011;15385;51.088;6.572;2022-08-16T12:26:44;6.55;;;2.90;;
28074;SDS011;15385;51.088;6.572;2022-08-16T12:29:15;5.75;;;2.88;;
28074;SDS011;15385;51.088;6.572;2022-08-16T12:31:46;7.43;;;2.83;;
28074;SDS011;15385;51.088;6.572;2022-08-16T12:34:18;6.25;;;2.80;;
28074;SDS011;15385;51.088;6.572;2022-08-16T12:36:48;4.97;;;2.63;;
28074;SDS011;15385;51.088;6.572;2022-08-16T12:39:22;3.30;;;2.33;;
28074;SDS011;15385;51.088;6.572;2022-08-16T12:41:53;8.10;;;2.70;;
28074;SDS011;15385;51.088;6.572;2022-08-16T12:44:24;5.88;;;2.42;;
28074;SDS011;15385;51.088;6.572;2022-08-16T12:46:55;4.25;;;2.75;;
28074;SDS011;15385;51.088;6.572;2022-08-16T12:49:44;3.92;;;2.38;;
28074;SDS011;15385;51.088;6.572;2022-08-16T12:52:24;3.90;;;2.20;;
28074;SDS011;15385;51.088;6.572;2022-08-16T12:54:54;6.80;;;2.58;;
28074;SDS011;15385;51.088;6.572;2022-08-16T12:57:26;4.32;;;2.40;;
28074;SDS011;15385;51.088;6.572;2022-08-16T12:59:57;6.70;;;2.40;;
28074;SDS011;15385;51.088;6.572;2022-08-16T13:02:29;6.15;;;2.35;;
28074;SDS011;15385;51.088;6.572;2022-08-16T13:04:59;4.93;;;2.85;;
28074;SDS011;15385;51.088;6.572;2022-08-16T13:07:30;4.25;;;2.60;;
28074;SDS011;15385;51.088;6.572;2022-08-16T13:10:05;2.90;;;2.25;;
28074;SDS011;15385;51.088;6.572;2022-08-16T13:12:43;7.25;;;2.50;;
28074;SDS011;15385;51.088;6.572;2022-08-16T13:15:22;3.47;;;2.63;;
28074;SDS011;15385;51.088;6.572;2022-08-16T13:17:54;3.58;;;2.65;;
28074;SDS011;15385;51.088;6.572;2022-08-16T13:20:28;3.30;;;2.10;;
28074;SDS011;15385;51.088;6.572;2022-08-16T13:25:32;4.57;;;2.22;;
28074;SDS011;15385;51.088;6.572;2022-08-16T13:28:04;6.65;;;2.55;;
28074;SDS011;15385;51.088;6.572;2022-08-16T13:30:37;4.25;;;2.22;;
28074;SDS011;15385;51.088;6.572;2022-08-16T13:33:11;2.67;;;2.17;;
28074;SDS011;15385;51.088;6.572;2022-08-16T13:35:45;4.57;;;2.38;;
28074;SDS011;15385;51.088;6.572;2022-08-16T13:38:18;3.53;;;2.20;;
28074;SDS011;15385;51.088;6.572;2022-08-16T13:40:52;5.18;;;2.25;;
28074;SDS011;15385;51.088;6.572;2022-08-16T13:43:25;3.45;;;2.30;;
28074;SDS011;15385;51.088;6.572;2022-08-16T13:45:56;3.67;;;1.77;;
28074;SDS011;15385;51.088;6.572;2022-08-16T13:48:31;6.53;;;2.67;;
28074;SDS011;15385;51.088;6.572;2022-08-16T13:51:02;9.07;;;2.55;;
28074;SDS011;15385;51.088;6.572;2022-08-16T13:53:33;6.03;;;2.28;;
28074;SDS011;15385;51.088;6.572;2022-08-16T13:56:04;5.15;;;2.80;;
28074;SDS011;15385;51.088;6.572;2022-08-16T13:58:35;5.15;;;2.65;;
28074;SDS011;15385;51.088;6.572;2022-08-16T14:01:05;6.68;;;2.45;;
28074;SDS011;15385;51.088;6.572;2022-08-16T14:03:40;3.60;;;2.45;;
28074;SDS011;15385;51.088;6.572;2022-08-16T14:06:11;5.10;;;2.60;;
28074;SDS011;15385;51.088;6.572;2022-08-16T14:08:42;3.10;;;2.30;;
28074;SDS011;15385;51.088;6.572;2022-08-16T14:11:13;3.63;;;2.00;;
28074;SDS011;15385;51.088;6.572;2022-08-16T14:13:44;2.80;;;2.08;;
28074;SDS011;15385;51.088;6.572;2022-08-16T14:16:15;5.65;;;2.28;;
28074;SDS011;15385;51.088;6.572;2022-08-16T14:18:45;3.00;;;2.13;;
28074;SDS011;15385;51.088;6.572;2022-08-16T14:21:16;3.97;;;2.50;;
28074;SDS011;15385;51.088;6.572;2022-08-16T14:23:47;5.15;;;2.17;;
28074;SDS011;15385;51.088;6.572;2022-08-16T14:26:18;5.75;;;2.75;;
28074;SDS011;15385;51.088;6.572;2022-08-16T14:28:50;3.97;;;2.53;;
28074;SDS011;15385;51.088;6.572;2022-08-16T14:31:21;3.65;;;2.20;;
28074;SDS011;15385;51.088;6.572;2022-08-16T14:33:52;9.32;;;2.80;;
28074;SDS011;15385;51.088;6.572;2022-08-16T14:36:23;4.13;;;2.88;;
28074;SDS011;15385;51.088;6.572;2022-08-16T14:38:57;4.43;;;2.85;;
28074;SDS011;15385;51.088;6.572;2022-08-16T14:41:29;2.53;;;2.20;;
28074;SDS011;15385;51.088;6.572;2022-08-16T14:43:59;4.88;;;2.53;;
28074;SDS011;15385;51.088;6.572;2022-08-16T14:46:30;6.28;;;2.67;;
28074;SDS011;15385;51.088;6.572;2022-08-16T14:49:01;5.43;;;2.92;;
28074;SDS011;15385;51.088;6.572;2022-08-16T14:51:33;4.25;;;2.53;;
28074;SDS011;15385;51.088;6.572;2022-08-16T14:54:03;5.20;;;2.40;;
28074;SDS011;15385;51.088;6.572;2022-08-16T14:56:34;3.35;;;2.38;;
28074;SDS011;15385;51.088;6.572;2022-08-16T14:59:05;5.00;;;2.13;;
28074;SDS011;15385;51.088;6.572;2022-08-16T15:01:36;2.70;;;2.10;;
28074;SDS011;15385;51.088;6.572;2022-08-16T15:04:06;3.92;;;2.50;;
28074;SDS011;15385;51.088;6.572;2022-08-16T15:06:37;2.63;;;2.03;;
28074;SDS011;15385;51.088;6.572;2022-08-16T15:09:08;8.18;;;2.67;;
28074;SDS011;15385;51.088;6.572;2022-08-16T15:11:39;5.28;;;2.65;;
28074;SDS011;15385;51.088;6.572;2022-08-16T15:14:10;4.82;;;2.75;;
28074;SDS011;15385;51.088;6.572;2022-08-16T15:16:41;4.75;;;2.00;;
28074;SDS011;15385;51.088;6.572;2022-08-16T15:19:11;4.43;;;2.40;;
28074;SDS011;15385;51.088;6.572;2022-08-16T15:21:42;3.50;;;2.22;;